sensor_id;sensor_type;location;lat;lon;timestamp;pressure;altitude;pressure_sealevel;temperature;humidity
60642;BME280;46837;52.446;-1.930;2023-03-03T00:00:09;101506.22;;;4.53;69.74
60642;BME280;46837;52.446;-1.930;2023-03-03T00:01:09;101503.34;;;4.44;69.99
60642;BME280;46837;52.446;-1.930;2023-03-03T00:02:09;101506.18;;;4.43;70.16
60642;BME280;46837;52.446;-1.930;2023-03-03T00:03:09;101500.57;;;4.40;70.27
60642;BME280;46837;52.446;-1.930;2023-03-03T00:04:09;101502.44;;;4.37;70.42
60642;BME280;46837;52.446;-1.930;2023-03-03T00:05:09;101503.41;;;4.27;70.61
60642;BME280;46837;52.446;-1.930;2023-03-03T00:06:10;101501.55;;;4.27;70.84
60642;BME280;46837;52.446;-1.930;2023-03-03T00:07:09;101500.90;;;4.26;70.91
60642;BME280;46837;52.446;-1.930;2023-03-03T00:08:09;101498.54;;;4.27;70.94
60642;BME280;46837;52.446;-1.930;2023-03-03T00:09:09;101494.80;;;4.26;70.96
60642;BME280;46837;52.446;-1.930;2023-03-03T00:10:09;101495.75;;;4.27;70.92
60642;BME280;46837;52.446;-1.930;2023-03-03T00:11:09;101499.84;;;4.23;71.34
60642;BME280;46837;52.446;-1.930;2023-03-03T00:13:16;101502.40;;;4.29;71.13
60642;BME280;46837;52.446;-1.930;2023-03-03T00:14:31;101503.82;;;4.29;71.16
60642;BME280;46837;52.446;-1.930;2023-03-03T00:15:17;101506.42;;;4.31;71.14
60642;BME280;46837;52.446;-1.930;2023-03-03T00:16:18;101505.77;;;4.36;71.01
60642;BME280;46837;52.446;-1.930;2023-03-03T00:17:19;101512.02;;;4.41;70.91
60642;BME280;46837;52.446;-1.930;2023-03-03T00:22:13;101508.53;;;4.38;71.20
60642;BME280;46837;52.446;-1.930;2023-03-03T00:23:18;101508.37;;;4.40;71.14
60642;BME280;46837;52.446;-1.930;2023-03-03T00:24:17;101507.15;;;4.40;71.08
60642;BME280;46837;52.446;-1.930;2023-03-03T00:27:17;101503.37;;;4.39;71.15
60642;BME280;46837;52.446;-1.930;2023-03-03T00:30:16;101493.59;;;4.40;71.11
60642;BME280;46837;52.446;-1.930;2023-03-03T00:31:19;101501.51;;;4.38;71.27
60642;BME280;46837;52.446;-1.930;2023-03-03T00:32:17;101498.66;;;4.36;71.36
60642;BME280;46837;52.446;-1.930;2023-03-03T00:33:18;101499.03;;;4.39;71.29
60642;BME280;46837;52.446;-1.930;2023-03-03T00:34:20;101501.30;;;4.39;71.42
60642;BME280;46837;52.446;-1.930;2023-03-03T00:38:16;101501.91;;;4.37;71.36
60642;BME280;46837;52.446;-1.930;2023-03-03T00:41:19;101505.77;;;4.39;71.39
60642;BME280;46837;52.446;-1.930;2023-03-03T00:42:15;101497.33;;;4.38;71.36
60642;BME280;46837;52.446;-1.930;2023-03-03T00:45:17;101503.09;;;4.37;71.34
60642;BME280;46837;52.446;-1.930;2023-03-03T00:46:09;101505.24;;;4.33;71.37
60642;BME280;46837;52.446;-1.930;2023-03-03T00:48:18;101506.42;;;4.27;71.63
60642;BME280;46837;52.446;-1.930;2023-03-03T00:49:16;101501.71;;;4.31;71.56
60642;BME280;46837;52.446;-1.930;2023-03-03T00:52:13;101501.06;;;4.31;71.58
60642;BME280;46837;52.446;-1.930;2023-03-03T00:53:12;101499.23;;;4.33;71.55
60642;BME280;46837;52.446;-1.930;2023-03-03T00:54:09;101502.56;;;4.30;71.83
60642;BME280;46837;52.446;-1.930;2023-03-03T00:55:09;101505.24;;;4.34;71.77
60642;BME280;46837;52.446;-1.930;2023-03-03T00:56:09;101502.97;;;4.35;71.67
60642;BME280;46837;52.446;-1.930;2023-03-03T00:57:09;101504.63;;;4.30;71.71
60642;BME280;46837;52.446;-1.930;2023-03-03T00:58:09;101502.36;;;4.28;71.81
60642;BME280;46837;52.446;-1.930;2023-03-03T00:59:09;101505.89;;;4.29;71.75
60642;BME280;46837;52.446;-1.930;2023-03-03T01:00:10;101504.02;;;4.29;71.80
60642;BME280;46837;52.446;-1.930;2023-03-03T01:01:09;101508.16;;;4.35;71.73
60642;BME280;46837;52.446;-1.930;2023-03-03T01:02:10;101505.57;;;4.35;71.71
60642;BME280;46837;52.446;-1.930;2023-03-03T01:03:12;101506.21;;;4.33;71.90
60642;BME280;46837;52.446;-1.930;2023-03-03T01:04:09;101505.81;;;4.34;71.85
60642;BME280;46837;52.446;-1.930;2023-03-03T01:05:09;101506.98;;;4.33;71.78
60642;BME280;46837;52.446;-1.930;2023-03-03T01:06:09;101508.45;;;4.37;71.78
60642;BME280;46837;52.446;-1.930;2023-03-03T01:07:09;101513.68;;;4.41;71.71
60642;BME280;46837;52.446;-1.930;2023-03-03T01:08:09;101511.49;;;4.43;71.68
60642;BME280;46837;52.446;-1.930;2023-03-03T01:09:09;101510.88;;;4.40;71.62
60642;BME280;46837;52.446;-1.930;2023-03-03T01:10:09;101509.66;;;4.34;71.94
60642;BME280;46837;52.446;-1.930;2023-03-03T01:11:16;101511.95;;;4.38;71.87
60642;BME280;46837;52.446;-1.930;2023-03-03T01:12:09;101509.63;;;4.42;71.73
60642;BME280;46837;52.446;-1.930;2023-03-03T01:13:09;101513.12;;;4.42;71.68
60642;BME280;46837;52.446;-1.930;2023-03-03T01:14:09;101511.90;;;4.40;71.92
60642;BME280;46837;52.446;-1.930;2023-03-03T01:15:09;101514.91;;;4.38;71.87
60642;BME280;46837;52.446;-1.930;2023-03-03T01:16:09;101512.95;;;4.39;71.74
60642;BME280;46837;52.446;-1.930;2023-03-03T01:17:09;101514.09;;;4.43;71.56
60642;BME280;46837;52.446;-1.930;2023-03-03T01:18:09;101513.08;;;4.48;71.52
60642;BME280;46837;52.446;-1.930;2023-03-03T01:19:09;101514.45;;;4.50;71.45
60642;BME280;46837;52.446;-1.930;2023-03-03T01:20:10;101515.11;;;4.47;71.56
60642;BME280;46837;52.446;-1.930;2023-03-03T01:21:09;101514.29;;;4.50;71.57
60642;BME280;46837;52.446;-1.930;2023-03-03T01:22:09;101516.77;;;4.52;71.56
60642;BME280;46837;52.446;-1.930;2023-03-03T01:23:09;101515.35;;;4.50;71.52
60642;BME280;46837;52.446;-1.930;2023-03-03T01:24:09;101516.98;;;4.51;71.46
60642;BME280;46837;52.446;-1.930;2023-03-03T01:25:09;101515.80;;;4.52;71.43
60642;BME280;46837;52.446;-1.930;2023-03-03T01:26:09;101521.48;;;4.52;71.31
60642;BME280;46837;52.446;-1.930;2023-03-03T01:27:09;101517.22;;;4.45;71.35
60642;BME280;46837;52.446;-1.930;2023-03-03T01:28:09;101520.42;;;4.46;71.25
60642;BME280;46837;52.446;-1.930;2023-03-03T01:29:09;101524.16;;;4.46;71.26
60642;BME280;46837;52.446;-1.930;2023-03-03T01:30:09;101522.86;;;4.43;71.19
60642;BME280;46837;52.446;-1.930;2023-03-03T01:31:09;101521.31;;;4.30;71.00
60642;BME280;46837;52.446;-1.930;2023-03-03T01:32:09;101524.48;;;4.34;71.23
60642;BME280;46837;52.446;-1.930;2023-03-03T01:33:09;101522.37;;;4.33;71.32
60642;BME280;46837;52.446;-1.930;2023-03-03T01:34:09;101521.03;;;4.34;71.32
60642;BME280;46837;52.446;-1.930;2023-03-03T01:35:09;101523.50;;;4.34;71.23
60642;BME280;46837;52.446;-1.930;2023-03-03T01:36:09;101524.23;;;4.31;71.36
60642;BME280;46837;52.446;-1.930;2023-03-03T01:37:09;101522.45;;;4.30;71.33
60642;BME280;46837;52.446;-1.930;2023-03-03T01:38:09;101521.77;;;4.34;71.27
60642;BME280;46837;52.446;-1.930;2023-03-03T01:39:09;101524.24;;;4.34;71.23
60642;BME280;46837;52.446;-1.930;2023-03-03T01:40:18;101522.86;;;4.34;71.30
60642;BME280;46837;52.446;-1.930;2023-03-03T01:41:09;101523.95;;;4.32;71.46
60642;BME280;46837;52.446;-1.930;2023-03-03T01:42:09;101523.10;;;4.33;71.40
60642;BME280;46837;52.446;-1.930;2023-03-03T01:43:11;101521.03;;;4.29;71.35
60642;BME280;46837;52.446;-1.930;2023-03-03T01:44:13;101517.70;;;4.29;71.30
60642;BME280;46837;52.446;-1.930;2023-03-03T01:45:17;101518.23;;;4.30;71.23
60642;BME280;46837;52.446;-1.930;2023-03-03T01:48:20;101522.53;;;4.30;71.28
60642;BME280;46837;52.446;-1.930;2023-03-03T01:49:15;101525.49;;;4.29;71.30
60642;BME280;46837;52.446;-1.930;2023-03-03T01:50:13;101523.71;;;4.30;71.25
60642;BME280;46837;52.446;-1.930;2023-03-03T01:53:12;101530.59;;;4.22;71.20
60642;BME280;46837;52.446;-1.930;2023-03-03T01:54:14;101529.34;;;4.26;71.17
60642;BME280;46837;52.446;-1.930;2023-03-03T01:55:12;101531.70;;;4.27;71.02
60642;BME280;46837;52.446;-1.930;2023-03-03T01:56:09;101531.90;;;4.25;71.04
60642;BME280;46837;52.446;-1.930;2023-03-03T01:57:15;101530.68;;;4.24;71.15
60642;BME280;46837;52.446;-1.930;2023-03-03T01:58:14;101529.14;;;4.23;71.27
60642;BME280;46837;52.446;-1.930;2023-03-03T02:00:09;101521.51;;;4.19;71.22
60642;BME280;46837;52.446;-1.930;2023-03-03T02:01:13;101528.07;;;4.18;71.31
60642;BME280;46837;52.446;-1.930;2023-03-03T02:02:09;101527.47;;;4.22;71.22
60642;BME280;46837;52.446;-1.930;2023-03-03T02:03:09;101527.96;;;4.24;71.18
60642;BME280;46837;52.446;-1.930;2023-03-03T02:04:09;101528.97;;;4.18;71.27
60642;BME280;46837;52.446;-1.930;2023-03-03T02:05:09;101530.50;;;4.13;71.70
60642;BME280;46837;52.446;-1.930;2023-03-03T02:06:10;101528.39;;;4.13;71.73
60642;BME280;46837;52.446;-1.930;2023-03-03T02:07:11;101533.15;;;4.17;71.64
60642;BME280;46837;52.446;-1.930;2023-03-03T02:08:10;101532.46;;;4.19;71.65
60642;BME280;46837;52.446;-1.930;2023-03-03T02:09:17;101532.02;;;4.22;71.56
60642;BME280;46837;52.446;-1.930;2023-03-03T02:10:16;101529.34;;;4.23;71.42
60642;BME280;46837;52.446;-1.930;2023-03-03T02:11:09;101529.10;;;4.24;71.46
60642;BME280;46837;52.446;-1.930;2023-03-03T02:12:10;101529.99;;;4.24;71.40
60642;BME280;46837;52.446;-1.930;2023-03-03T02:13:09;101529.06;;;4.24;71.42
60642;BME280;46837;52.446;-1.930;2023-03-03T02:14:10;101528.03;;;4.18;71.52
60642;BME280;46837;52.446;-1.930;2023-03-03T02:15:16;101529.98;;;4.18;71.54
60642;BME280;46837;52.446;-1.930;2023-03-03T02:16:09;101523.86;;;4.17;71.46
60642;BME280;46837;52.446;-1.930;2023-03-03T02:17:09;101529.71;;;4.21;71.33
60642;BME280;46837;52.446;-1.930;2023-03-03T02:18:13;101528.12;;;4.22;71.38
60642;BME280;46837;52.446;-1.930;2023-03-03T02:19:32;101523.91;;;4.26;71.32
60642;BME280;46837;52.446;-1.930;2023-03-03T02:21:29;101526.00;;;4.19;71.55
60642;BME280;46837;52.446;-1.930;2023-03-03T02:22:09;101527.91;;;4.17;71.57
60642;BME280;46837;52.446;-1.930;2023-03-03T02:23:17;101532.79;;;4.20;71.60
60642;BME280;46837;52.446;-1.930;2023-03-03T02:24:23;101529.61;;;4.11;71.79
60642;BME280;46837;52.446;-1.930;2023-03-03T02:25:12;101528.72;;;4.12;71.69
60642;BME280;46837;52.446;-1.930;2023-03-03T02:26:13;101529.16;;;4.12;71.73
60642;BME280;46837;52.446;-1.930;2023-03-03T02:27:09;101529.85;;;4.12;71.60
60642;BME280;46837;52.446;-1.930;2023-03-03T02:28:09;101528.11;;;4.13;71.69
60642;BME280;46837;52.446;-1.930;2023-03-03T02:29:09;101526.04;;;4.12;71.74
60642;BME280;46837;52.446;-1.930;2023-03-03T02:30:15;101527.78;;;4.12;71.85
60642;BME280;46837;52.446;-1.930;2023-03-03T02:31:10;101529.08;;;4.09;71.98
60642;BME280;46837;52.446;-1.930;2023-03-03T02:32:09;101530.17;;;4.09;71.96
60642;BME280;46837;52.446;-1.930;2023-03-03T02:33:09;101530.17;;;4.09;71.92
60642;BME280;46837;52.446;-1.930;2023-03-03T02:34:09;101529.61;;;4.10;72.01
60642;BME280;46837;52.446;-1.930;2023-03-03T02:36:20;101529.30;;;4.17;71.78
60642;BME280;46837;52.446;-1.930;2023-03-03T02:37:09;101525.57;;;4.21;71.80
60642;BME280;46837;52.446;-1.930;2023-03-03T02:39:15;101524.43;;;4.22;71.80
60642;BME280;46837;52.446;-1.930;2023-03-03T02:40:09;101521.99;;;4.18;71.84
60642;BME280;46837;52.446;-1.930;2023-03-03T02:42:14;101528.52;;;4.19;71.80
60642;BME280;46837;52.446;-1.930;2023-03-03T02:43:09;101524.99;;;4.16;71.87
60642;BME280;46837;52.446;-1.930;2023-03-03T02:44:11;101528.23;;;4.13;71.99
60642;BME280;46837;52.446;-1.930;2023-03-03T02:45:09;101527.09;;;4.09;72.07
60642;BME280;46837;52.446;-1.930;2023-03-03T02:46:09;101532.04;;;4.11;72.09
60642;BME280;46837;52.446;-1.930;2023-03-03T02:47:09;101526.04;;;4.11;72.03
60642;BME280;46837;52.446;-1.930;2023-03-03T02:48:09;101527.66;;;4.12;72.04
60642;BME280;46837;52.446;-1.930;2023-03-03T02:49:09;101526.77;;;4.16;72.02
60642;BME280;46837;52.446;-1.930;2023-03-03T02:50:09;101526.25;;;4.17;71.98
60642;BME280;46837;52.446;-1.930;2023-03-03T02:51:09;101526.98;;;4.16;72.05
60642;BME280;46837;52.446;-1.930;2023-03-03T02:52:09;101527.07;;;4.20;72.09
60642;BME280;46837;52.446;-1.930;2023-03-03T02:53:09;101528.57;;;4.19;72.16
60642;BME280;46837;52.446;-1.930;2023-03-03T02:54:09;101529.70;;;4.22;72.16
60642;BME280;46837;52.446;-1.930;2023-03-03T02:55:09;101530.60;;;4.23;72.04
60642;BME280;46837;52.446;-1.930;2023-03-03T02:56:09;101528.73;;;4.22;72.16
60642;BME280;46837;52.446;-1.930;2023-03-03T02:57:09;101531.04;;;4.22;72.19
60642;BME280;46837;52.446;-1.930;2023-03-03T02:58:09;101529.86;;;4.21;72.15
60642;BME280;46837;52.446;-1.930;2023-03-03T02:59:09;101531.93;;;4.18;72.28
60642;BME280;46837;52.446;-1.930;2023-03-03T03:00:11;101525.45;;;4.23;72.22
60642;BME280;46837;52.446;-1.930;2023-03-03T03:01:09;101531.28;;;4.19;72.21
60642;BME280;46837;52.446;-1.930;2023-03-03T03:02:09;101535.95;;;4.18;72.31
60642;BME280;46837;52.446;-1.930;2023-03-03T03:03:09;101533.18;;;4.16;72.33
60642;BME280;46837;52.446;-1.930;2023-03-03T03:04:14;101535.22;;;4.17;72.44
60642;BME280;46837;52.446;-1.930;2023-03-03T03:05:09;101533.72;;;4.22;72.44
60642;BME280;46837;52.446;-1.930;2023-03-03T03:06:09;101530.96;;;4.22;72.29
60642;BME280;46837;52.446;-1.930;2023-03-03T03:07:09;101534.81;;;4.16;72.49
60642;BME280;46837;52.446;-1.930;2023-03-03T03:08:09;101537.00;;;4.16;72.51
60642;BME280;46837;52.446;-1.930;2023-03-03T03:09:09;101534.40;;;4.18;72.50
60642;BME280;46837;52.446;-1.930;2023-03-03T03:10:09;101531.93;;;4.22;72.48
60642;BME280;46837;52.446;-1.930;2023-03-03T03:11:09;101530.68;;;4.21;72.44
60642;BME280;46837;52.446;-1.930;2023-03-03T03:12:09;101533.77;;;4.23;72.44
60642;BME280;46837;52.446;-1.930;2023-03-03T03:13:09;101533.97;;;4.21;72.47
60642;BME280;46837;52.446;-1.930;2023-03-03T03:14:09;101531.81;;;4.19;72.56
60642;BME280;46837;52.446;-1.930;2023-03-03T03:15:09;101530.87;;;4.12;72.79
60642;BME280;46837;52.446;-1.930;2023-03-03T03:16:09;101531.47;;;4.11;72.69
60642;BME280;46837;52.446;-1.930;2023-03-03T03:17:09;101532.37;;;4.12;72.86
60642;BME280;46837;52.446;-1.930;2023-03-03T03:18:09;101534.36;;;4.10;72.77
60642;BME280;46837;52.446;-1.930;2023-03-03T03:19:09;101531.86;;;4.00;72.84
60642;BME280;46837;52.446;-1.930;2023-03-03T03:20:09;101535.47;;;4.01;73.02
60642;BME280;46837;52.446;-1.930;2023-03-03T03:21:10;101535.51;;;3.99;73.12
60642;BME280;46837;52.446;-1.930;2023-03-03T03:22:09;101535.30;;;3.97;73.12
60642;BME280;46837;52.446;-1.930;2023-03-03T03:23:09;101534.97;;;3.95;73.21
60642;BME280;46837;52.446;-1.930;2023-03-03T03:24:09;101535.66;;;3.97;73.02
60642;BME280;46837;52.446;-1.930;2023-03-03T03:25:09;101534.77;;;3.94;72.99
60642;BME280;46837;52.446;-1.930;2023-03-03T03:26:09;101529.77;;;3.94;72.99
60642;BME280;46837;52.446;-1.930;2023-03-03T03:27:09;101530.59;;;3.94;72.89
60642;BME280;46837;52.446;-1.930;2023-03-03T03:28:09;101530.31;;;3.95;72.89
60642;BME280;46837;52.446;-1.930;2023-03-03T03:29:09;101529.21;;;3.93;72.95
60642;BME280;46837;52.446;-1.930;2023-03-03T03:30:09;101530.43;;;3.96;73.03
60642;BME280;46837;52.446;-1.930;2023-03-03T03:31:09;101532.14;;;3.98;72.94
60642;BME280;46837;52.446;-1.930;2023-03-03T03:32:09;101528.99;;;3.88;73.28
60642;BME280;46837;52.446;-1.930;2023-03-03T03:33:09;101524.94;;;3.89;73.11
60642;BME280;46837;52.446;-1.930;2023-03-03T03:34:09;101532.01;;;3.95;73.19
60642;BME280;46837;52.446;-1.930;2023-03-03T03:35:09;101532.18;;;3.99;73.05
60642;BME280;46837;52.446;-1.930;2023-03-03T03:36:09;101530.62;;;3.94;73.06
60642;BME280;46837;52.446;-1.930;2023-03-03T03:37:09;101531.73;;;3.97;73.02
60642;BME280;46837;52.446;-1.930;2023-03-03T03:38:09;101533.99;;;3.94;72.99
60642;BME280;46837;52.446;-1.930;2023-03-03T03:39:09;101533.96;;;3.98;72.89
60642;BME280;46837;52.446;-1.930;2023-03-03T03:40:09;101533.48;;;4.00;72.90
60642;BME280;46837;52.446;-1.930;2023-03-03T03:41:09;101532.11;;;4.06;72.82
60642;BME280;46837;52.446;-1.930;2023-03-03T03:42:09;101538.05;;;4.11;72.69
60642;BME280;46837;52.446;-1.930;2023-03-03T03:43:09;101535.00;;;4.08;72.66
60642;BME280;46837;52.446;-1.930;2023-03-03T03:44:09;101534.59;;;4.03;72.81
60642;BME280;46837;52.446;-1.930;2023-03-03T03:45:09;101532.32;;;4.06;72.77
60642;BME280;46837;52.446;-1.930;2023-03-03T03:46:09;101533.53;;;4.05;72.59
60642;BME280;46837;52.446;-1.930;2023-03-03T03:47:09;101533.08;;;3.99;72.68
60642;BME280;46837;52.446;-1.930;2023-03-03T03:48:10;101533.07;;;3.97;72.76
60642;BME280;46837;52.446;-1.930;2023-03-03T03:49:09;101534.89;;;3.97;72.86
60642;BME280;46837;52.446;-1.930;2023-03-03T03:50:09;101534.00;;;3.95;72.87
60642;BME280;46837;52.446;-1.930;2023-03-03T03:51:10;101532.09;;;3.96;72.81
60642;BME280;46837;52.446;-1.930;2023-03-03T03:52:09;101525.81;;;3.95;72.79
60642;BME280;46837;52.446;-1.930;2023-03-03T03:53:09;101530.96;;;3.95;72.87
60642;BME280;46837;52.446;-1.930;2023-03-03T03:54:09;101530.96;;;3.96;72.89
60642;BME280;46837;52.446;-1.930;2023-03-03T03:55:09;101525.16;;;3.95;72.91
60642;BME280;46837;52.446;-1.930;2023-03-03T03:56:09;101525.69;;;3.99;72.92
60642;BME280;46837;52.446;-1.930;2023-03-03T03:57:09;101522.77;;;3.98;73.08
60642;BME280;46837;52.446;-1.930;2023-03-03T03:58:12;101525.21;;;4.00;73.00
60642;BME280;46837;52.446;-1.930;2023-03-03T03:59:09;101525.46;;;4.05;72.95
60642;BME280;46837;52.446;-1.930;2023-03-03T04:00:09;101522.86;;;4.05;72.89
60642;BME280;46837;52.446;-1.930;2023-03-03T04:01:09;101523.62;;;4.02;73.10
60642;BME280;46837;52.446;-1.930;2023-03-03T04:02:09;101518.68;;;4.00;73.13
60642;BME280;46837;52.446;-1.930;2023-03-03T04:03:09;101519.49;;;4.01;73.13
60642;BME280;46837;52.446;-1.930;2023-03-03T04:04:09;101521.44;;;4.00;73.11
60642;BME280;46837;52.446;-1.930;2023-03-03T04:05:09;101521.31;;;4.01;73.21
60642;BME280;46837;52.446;-1.930;2023-03-03T04:06:09;101520.96;;;4.05;73.17
60642;BME280;46837;52.446;-1.930;2023-03-03T04:07:09;101517.51;;;4.03;73.19
60642;BME280;46837;52.446;-1.930;2023-03-03T04:08:09;101518.61;;;4.06;73.11
60642;BME280;46837;52.446;-1.930;2023-03-03T04:09:09;101519.46;;;4.09;73.08
60642;BME280;46837;52.446;-1.930;2023-03-03T04:10:09;101519.34;;;4.11;73.12
60642;BME280;46837;52.446;-1.930;2023-03-03T04:11:09;101518.73;;;4.11;73.12
60642;BME280;46837;52.446;-1.930;2023-03-03T04:12:09;101518.09;;;4.12;73.03
60642;BME280;46837;52.446;-1.930;2023-03-03T04:13:09;101516.95;;;4.11;73.01
60642;BME280;46837;52.446;-1.930;2023-03-03T04:14:09;101514.48;;;4.15;72.97
60642;BME280;46837;52.446;-1.930;2023-03-03T04:15:10;101520.56;;;4.13;73.05
60642;BME280;46837;52.446;-1.930;2023-03-03T04:16:09;101514.32;;;4.15;72.96
60642;BME280;46837;52.446;-1.930;2023-03-03T04:17:18;101519.02;;;4.13;72.86
60642;BME280;46837;52.446;-1.930;2023-03-03T04:18:09;101515.97;;;4.09;72.80
60642;BME280;46837;52.446;-1.930;2023-03-03T04:19:09;101520.76;;;4.07;72.88
60642;BME280;46837;52.446;-1.930;2023-03-03T04:20:10;101518.12;;;4.07;72.91
60642;BME280;46837;52.446;-1.930;2023-03-03T04:21:14;101516.34;;;4.09;72.86
60642;BME280;46837;52.446;-1.930;2023-03-03T04:22:09;101519.22;;;4.10;72.90
60642;BME280;46837;52.446;-1.930;2023-03-03T04:23:09;101517.28;;;4.14;72.81
60642;BME280;46837;52.446;-1.930;2023-03-03T04:24:09;101519.34;;;4.14;72.74
60642;BME280;46837;52.446;-1.930;2023-03-03T04:25:11;101519.27;;;4.10;72.74
60642;BME280;46837;52.446;-1.930;2023-03-03T04:26:09;101518.33;;;4.13;72.60
60642;BME280;46837;52.446;-1.930;2023-03-03T04:27:09;101519.10;;;4.12;72.69
60642;BME280;46837;52.446;-1.930;2023-03-03T04:28:09;101519.88;;;4.14;72.55
60642;BME280;46837;52.446;-1.930;2023-03-03T04:29:09;101523.57;;;4.13;72.67
60642;BME280;46837;52.446;-1.930;2023-03-03T04:30:09;101524.29;;;4.07;72.83
60642;BME280;46837;52.446;-1.930;2023-03-03T04:31:09;101521.50;;;4.13;72.84
60642;BME280;46837;52.446;-1.930;2023-03-03T04:32:09;101521.18;;;4.14;72.75
60642;BME280;46837;52.446;-1.930;2023-03-03T04:33:09;101522.11;;;4.17;72.66
60642;BME280;46837;52.446;-1.930;2023-03-03T04:34:09;101520.48;;;4.18;72.58
60642;BME280;46837;52.446;-1.930;2023-03-03T04:35:09;101519.27;;;4.14;72.75
60642;BME280;46837;52.446;-1.930;2023-03-03T04:36:09;101519.15;;;4.16;72.76
60642;BME280;46837;52.446;-1.930;2023-03-03T04:37:09;101522.03;;;4.16;72.84
60642;BME280;46837;52.446;-1.930;2023-03-03T04:38:09;101518.54;;;4.19;72.87
60642;BME280;46837;52.446;-1.930;2023-03-03T04:39:09;101520.86;;;4.24;72.79
60642;BME280;46837;52.446;-1.930;2023-03-03T04:40:09;101520.41;;;4.26;72.62
60642;BME280;46837;52.446;-1.930;2023-03-03T04:41:09;101519.76;;;4.25;72.62
60642;BME280;46837;52.446;-1.930;2023-03-03T04:42:09;101516.60;;;4.26;72.60
60642;BME280;46837;52.446;-1.930;2023-03-03T04:43:09;101521.79;;;4.22;72.65
60642;BME280;46837;52.446;-1.930;2023-03-03T04:44:09;101519.23;;;4.22;72.61
60642;BME280;46837;52.446;-1.930;2023-03-03T04:45:09;101521.87;;;4.25;72.65
60642;BME280;46837;52.446;-1.930;2023-03-03T04:46:09;101520.78;;;4.26;72.57
60642;BME280;46837;52.446;-1.930;2023-03-03T04:47:09;101521.55;;;4.26;72.59
60642;BME280;46837;52.446;-1.930;2023-03-03T04:48:09;101520.62;;;4.29;72.51
60642;BME280;46837;52.446;-1.930;2023-03-03T04:49:10;101522.05;;;4.31;72.48
60642;BME280;46837;52.446;-1.930;2023-03-03T04:50:09;101521.48;;;4.36;72.40
60642;BME280;46837;52.446;-1.930;2023-03-03T04:51:09;101522.17;;;4.39;72.34
60642;BME280;46837;52.446;-1.930;2023-03-03T04:52:09;101520.18;;;4.40;72.39
60642;BME280;46837;52.446;-1.930;2023-03-03T04:53:09;101524.47;;;4.26;72.66
60642;BME280;46837;52.446;-1.930;2023-03-03T04:54:09;101517.74;;;4.24;72.63
60642;BME280;46837;52.446;-1.930;2023-03-03T04:55:09;101520.98;;;4.27;72.59
60642;BME280;46837;52.446;-1.930;2023-03-03T04:56:09;101518.63;;;4.28;72.49
60642;BME280;46837;52.446;-1.930;2023-03-03T04:57:09;101519.77;;;4.27;72.44
60642;BME280;46837;52.446;-1.930;2023-03-03T04:58:09;101520.13;;;4.23;72.50
60642;BME280;46837;52.446;-1.930;2023-03-03T04:59:09;101523.86;;;4.26;72.48
60642;BME280;46837;52.446;-1.930;2023-03-03T05:00:10;101523.97;;;4.13;72.57
60642;BME280;46837;52.446;-1.930;2023-03-03T05:01:12;101521.42;;;4.19;72.63
60642;BME280;46837;52.446;-1.930;2023-03-03T05:02:09;101523.93;;;4.13;72.40
60642;BME280;46837;52.446;-1.930;2023-03-03T05:03:09;101524.13;;;4.12;72.50
60642;BME280;46837;52.446;-1.930;2023-03-03T05:04:09;101524.74;;;4.13;72.47
60642;BME280;46837;52.446;-1.930;2023-03-03T05:05:09;101529.41;;;4.13;72.51
60642;BME280;46837;52.446;-1.930;2023-03-03T05:06:09;101528.47;;;4.14;72.49
60642;BME280;46837;52.446;-1.930;2023-03-03T05:07:09;101530.99;;;4.16;72.31
60642;BME280;46837;52.446;-1.930;2023-03-03T05:08:09;101531.15;;;4.13;72.19
60642;BME280;46837;52.446;-1.930;2023-03-03T05:09:09;101528.88;;;4.12;72.16
60642;BME280;46837;52.446;-1.930;2023-03-03T05:10:09;101529.16;;;4.08;72.18
60642;BME280;46837;52.446;-1.930;2023-03-03T05:11:09;101529.77;;;4.09;72.20
60642;BME280;46837;52.446;-1.930;2023-03-03T05:12:09;101533.71;;;4.10;72.15
60642;BME280;46837;52.446;-1.930;2023-03-03T05:13:09;101525.88;;;3.91;72.21
60642;BME280;46837;52.446;-1.930;2023-03-03T05:14:10;101528.21;;;3.99;72.68
60642;BME280;46837;52.446;-1.930;2023-03-03T05:15:09;101528.74;;;4.04;72.46
60642;BME280;46837;52.446;-1.930;2023-03-03T05:16:09;101529.47;;;4.04;72.46
60642;BME280;46837;52.446;-1.930;2023-03-03T05:17:09;101529.11;;;4.03;72.34
60642;BME280;46837;52.446;-1.930;2023-03-03T05:18:09;101531.41;;;3.96;72.37
60642;BME280;46837;52.446;-1.930;2023-03-03T05:19:09;101533.64;;;3.99;72.42
60642;BME280;46837;52.446;-1.930;2023-03-03T05:20:10;101535.27;;;4.03;72.36
60642;BME280;46837;52.446;-1.930;2023-03-03T05:21:09;101532.60;;;4.06;72.34
60642;BME280;46837;52.446;-1.930;2023-03-03T05:22:09;101529.97;;;4.09;72.20
60642;BME280;46837;52.446;-1.930;2023-03-03T05:23:09;101529.93;;;4.11;72.14
60642;BME280;46837;52.446;-1.930;2023-03-03T05:24:09;101530.73;;;4.08;72.12
60642;BME280;46837;52.446;-1.930;2023-03-03T05:25:09;101530.57;;;4.04;72.09
60642;BME280;46837;52.446;-1.930;2023-03-03T05:26:09;101533.69;;;4.02;72.11
60642;BME280;46837;52.446;-1.930;2023-03-03T05:27:09;101534.87;;;4.03;72.10
60642;BME280;46837;52.446;-1.930;2023-03-03T05:28:09;101536.49;;;4.01;72.12
60642;BME280;46837;52.446;-1.930;2023-03-03T05:29:09;101533.25;;;4.03;72.07
60642;BME280;46837;52.446;-1.930;2023-03-03T05:30:09;101538.43;;;4.04;72.04
60642;BME280;46837;52.446;-1.930;2023-03-03T05:31:09;101541.98;;;4.07;72.01
60642;BME280;46837;52.446;-1.930;2023-03-03T05:32:09;101535.07;;;4.00;72.01
60642;BME280;46837;52.446;-1.930;2023-03-03T05:33:09;101536.92;;;3.97;71.97
60642;BME280;46837;52.446;-1.930;2023-03-03T05:34:09;101536.40;;;3.99;72.05
60642;BME280;46837;52.446;-1.930;2023-03-03T05:35:09;101535.87;;;4.00;72.05
60642;BME280;46837;52.446;-1.930;2023-03-03T05:36:09;101536.32;;;4.02;72.03
60642;BME280;46837;52.446;-1.930;2023-03-03T05:37:09;101531.13;;;4.02;71.89
60642;BME280;46837;52.446;-1.930;2023-03-03T05:38:09;101536.86;;;4.08;71.91
60642;BME280;46837;52.446;-1.930;2023-03-03T05:39:09;101539.18;;;4.09;71.82
60642;BME280;46837;52.446;-1.930;2023-03-03T05:40:09;101535.08;;;4.09;71.79
60642;BME280;46837;52.446;-1.930;2023-03-03T05:41:09;101537.55;;;4.08;71.80